Time;durP1;ratioP1;P1;durP2;ratioP2;P2;SDS_P1;SDS_P2;PMS_P1;PMS_P2;Temp;Humidity;BMP_temperature;BMP_pressure;BME280_temperature;BME280_humidity;BME280_pressure;Samples;Min_cycle;Max_cycle;Signal;HPM_P1;HPM_P2
2023/04/02 00:00:15;;;;;;;3.10;2.07;;;4.30;99.90;;;;;;4886000;29;20253;-96
2023/04/02 00:03:00;;;;;;;3.20;1.63;;;4.30;99.90;;;;;;4885239;29;20182;-96
2023/04/02 00:05:49;;;;;;;1.53;1.23;;;4.30;99.90;;;;;;4884699;29;20198;-96
2023/04/02 00:08:26;;;;;;;2.63;1.80;;;4.20;99.90;;;;;;4885652;29;20210;-96
2023/04/02 00:10:55;;;;;;;2.37;2.13;;;4.30;99.90;;;;;;4885797;29;20213;-95
2023/04/02 00:13:35;;;;;;;4.73;2.10;;;4.30;99.90;;;;;;4889799;29;20206;-96
2023/04/02 00:16:04;;;;;;;3.83;1.80;;;4.30;99.90;;;;;;4891341;29;20242;-95
2023/04/02 00:18:32;;;;;;;2.83;1.60;;;4.30;99.90;;;;;;4888021;29;20263;-96
2023/04/02 00:21:10;;;;;;;4.53;1.80;;;4.30;99.90;;;;;;4893844;29;20262;-95
2023/04/02 00:23:40;;;;;;;3.13;2.10;;;4.30;99.90;;;;;;4887972;29;20221;-96
2023/04/02 00:26:21;;;;;;;1.83;1.27;;;4.30;1.00;;;;;;4886851;29;20624;-96
2023/04/02 00:28:49;;;;;;;2.07;1.33;;;4.30;1.00;;;;;;4889397;29;20214;-96
2023/04/02 00:31:18;;;;;;;2.97;1.70;;;4.30;1.00;;;;;;4887230;29;20202;-95
2023/04/02 00:33:46;;;;;;;1.80;1.30;;;4.30;1.00;;;;;;4886217;29;20224;-94
2023/04/02 00:36:15;;;;;;;3.60;1.67;;;4.30;1.00;;;;;;4887259;29;20220;-95
2023/04/02 00:38:44;;;;;;;2.27;1.90;;;4.30;1.00;;;;;;4885737;29;20722;-95
2023/04/02 00:41:17;;;;;;;3.70;2.10;;;4.30;1.00;;;;;;4888297;29;20217;-96
2023/04/02 00:43:49;;;;;;;3.40;1.73;;;4.30;1.00;;;;;;4889535;29;20278;-96
2023/04/02 00:46:22;;;;;;;2.53;1.53;;;4.30;1.00;;;;;;4888423;29;20656;-96
2023/04/02 00:48:54;;;;;;;3.13;1.67;;;4.30;1.00;;;;;;4896341;29;20252;-96
2023/04/02 00:51:26;;;;;;;2.97;1.33;;;4.30;1.00;;;;;;4884983;29;20275;-96
2023/04/02 00:53:56;;;;;;;4.20;2.07;;;4.30;1.00;;;;;;4887874;29;20269;-95
2023/04/02 00:56:27;;;;;;;3.67;1.80;;;4.20;1.00;;;;;;4886268;29;20225;-95
2023/04/02 00:58:56;;;;;;;2.40;1.37;;;4.30;1.00;;;;;;4884062;29;20199;-96
2023/04/02 01:01:25;;;;;;;2.87;1.80;;;4.20;1.00;;;;;;4883585;29;20216;-96
2023/04/02 01:03:58;;;;;;;2.10;1.80;;;4.20;1.00;;;;;;4883211;29;20213;-94
2023/04/02 01:06:30;;;;;;;2.03;1.77;;;4.20;1.00;;;;;;4865198;29;20183;-96
2023/04/02 01:09:24;;;;;;;2.30;1.60;;;4.20;1.00;;;;;;4872613;29;20226;-95
2023/04/02 01:12:13;;;;;;;5.03;1.97;;;4.20;1.00;;;;;;4883393;29;20207;-96
2023/04/02 01:14:47;;;;;;;3.27;1.53;;;4.20;1.00;;;;;;4883890;29;20195;-95
2023/04/02 01:17:27;;;;;;;3.57;1.27;;;4.20;1.00;;;;;;4882915;29;20230;-96
2023/04/02 01:20:21;;;;;;;1.60;1.37;;;4.20;1.00;;;;;;4884859;29;20686;-95
2023/04/02 01:22:55;;;;;;;4.37;1.80;;;4.20;1.00;;;;;;4885203;29;20199;-96
2023/04/02 01:25:28;;;;;;;3.07;1.90;;;4.20;1.00;;;;;;4885231;29;20250;-96
2023/04/02 01:28:04;;;;;;;2.33;1.50;;;4.20;1.00;;;;;;4884111;29;20194;-96
2023/04/02 01:30:34;;;;;;;3.90;1.97;;;4.20;1.00;;;;;;4864749;29;20207;-95
2023/04/02 01:33:02;;;;;;;3.20;1.80;;;4.20;1.00;;;;;;4865070;29;20219;-95
2023/04/02 01:35:33;;;;;;;2.40;1.57;;;4.20;1.00;;;;;;4864917;29;20203;-95
2023/04/02 01:38:09;;;;;;;2.33;1.43;;;4.10;1.00;;;;;;4871850;29;20298;-96
2023/04/02 01:40:42;;;;;;;3.37;1.80;;;4.10;1.00;;;;;;4882680;29;20540;-95
2023/04/02 01:43:18;;;;;;;3.97;1.37;;;4.10;1.00;;;;;;4884592;29;20295;-95
2023/04/02 01:45:47;;;;;;;2.83;1.53;;;4.20;1.00;;;;;;4882699;29;20628;-95
2023/04/02 01:48:16;;;;;;;2.67;1.90;;;4.10;1.00;;;;;;4882844;29;20207;-95
2023/04/02 01:50:45;;;;;;;2.70;1.70;;;4.10;1.00;;;;;;4883379;29;20289;-96
2023/04/02 01:53:14;;;;;;;5.20;1.80;;;4.10;1.00;;;;;;4882484;29;20195;-95
2023/04/02 01:55:44;;;;;;;4.20;1.50;;;4.10;1.00;;;;;;4882656;29;20667;-94
2023/04/02 01:58:13;;;;;;;2.33;1.50;;;4.10;1.00;;;;;;4882339;29;20222;-96
2023/04/02 02:00:49;;;;;;;3.07;1.53;;;4.20;1.00;;;;;;4884059;29;20273;-96
2023/04/02 02:03:16;;;;;;;1.67;1.23;;;4.10;1.00;;;;;;4899650;29;20242;-95
2023/04/02 02:05:45;;;;;;;3.40;1.30;;;4.10;1.00;;;;;;4896432;29;20201;-96
2023/04/02 02:08:25;;;;;;;2.50;1.47;;;4.10;1.00;;;;;;4888422;29;20201;-95
2023/04/02 02:10:52;;;;;;;5.10;1.60;;;4.10;1.00;;;;;;4884583;29;20210;-95
2023/04/02 02:13:19;;;;;;;2.97;1.53;;;4.20;1.00;;;;;;4884805;29;20267;-96
2023/04/02 02:15:48;;;;;;;3.63;1.30;;;4.10;99.90;;;;;;4882749;29;20242;-95
2023/04/02 02:18:19;;;;;;;2.37;1.50;;;4.20;99.90;;;;;;4882959;29;20218;-96
2023/04/02 02:20:47;;;;;;;1.60;1.47;;;4.10;1.00;;;;;;4883658;29;20210;-95
2023/04/02 02:23:14;;;;;;;2.20;1.40;;;4.10;99.90;;;;;;4885102;29;20293;-96
2023/04/02 02:25:42;;;;;;;4.53;1.90;;;4.10;99.90;;;;;;4881484;29;20212;-95
2023/04/02 02:28:16;;;;;;;2.00;1.37;;;4.10;1.00;;;;;;4882864;29;20290;-96
2023/04/02 02:30:47;;;;;;;4.80;1.60;;;4.10;1.00;;;;;;4886790;29;20190;-95
2023/04/02 02:33:20;;;;;;;2.17;1.30;;;4.10;99.90;;;;;;4889270;29;20295;-96
2023/04/02 02:35:53;;;;;;;3.43;1.40;;;4.10;99.90;;;;;;4875440;29;20203;-96
2023/04/02 02:38:34;;;;;;;3.23;1.40;;;4.10;99.90;;;;;;4878955;29;20218;-95
2023/04/02 02:41:06;;;;;;;3.27;1.83;;;4.10;99.90;;;;;;4885514;29;20195;-96
2023/04/02 02:43:35;;;;;;;5.93;1.77;;;4.10;99.90;;;;;;4888493;29;20211;-95
2023/04/02 02:46:05;;;;;;;4.20;1.47;;;4.10;99.90;;;;;;4884642;29;20210;-95
2023/04/02 02:48:38;;;;;;;4.60;1.83;;;4.20;99.90;;;;;;4881935;29;20183;-94
2023/04/02 02:51:09;;;;;;;2.80;1.27;;;4.10;1.00;;;;;;4881308;29;20640;-96
2023/04/02 02:53:48;;;;;;;3.27;1.40;;;4.10;1.00;;;;;;4881398;29;20533;-95
2023/04/02 02:56:15;;;;;;;2.27;1.17;;;4.20;1.00;;;;;;4880820;29;20212;-95
2023/04/02 02:58:42;;;;;;;3.37;1.43;;;4.20;1.00;;;;;;4880657;29;20213;-95
2023/04/02 03:01:10;;;;;;;3.63;1.63;;;4.10;1.00;;;;;;4881196;29;20290;-95
2023/04/02 03:03:39;;;;;;;3.43;1.50;;;4.20;1.00;;;;;;4881004;29;20226;-94
2023/04/02 03:06:09;;;;;;;2.07;1.57;;;4.20;99.90;;;;;;4880561;29;20206;-94
2023/04/02 03:08:39;;;;;;;2.87;1.30;;;4.20;99.90;;;;;;4880655;29;20207;-96
2023/04/02 03:11:11;;;;;;;2.37;1.30;;;4.20;99.90;;;;;;4880768;29;20214;-94
2023/04/02 03:13:40;;;;;;;3.10;1.40;;;4.20;99.90;;;;;;4880352;29;20203;-95
2023/04/02 03:16:13;;;;;;;4.57;2.00;;;4.20;99.90;;;;;;4881300;29;20209;-95
2023/04/02 03:18:47;;;;;;;2.40;1.60;;;4.20;1.00;;;;;;4881481;29;20210;-94
2023/04/02 03:21:24;;;;;;;2.33;1.60;;;4.10;1.00;;;;;;4880894;29;20282;-95
2023/04/02 03:23:55;;;;;;;2.90;1.60;;;4.10;1.00;;;;;;4880933;29;20190;-96
2023/04/02 03:26:26;;;;;;;2.73;1.37;;;4.10;1.00;;;;;;4881765;29;20732;-95
2023/04/02 03:28:59;;;;;;;3.37;1.40;;;4.10;1.00;;;;;;4881558;29;20213;-95
2023/04/02 03:31:32;;;;;;;2.40;1.30;;;4.20;1.00;;;;;;4863787;29;20239;-95
2023/04/02 03:34:06;;;;;;;4.67;1.40;;;4.20;1.00;;;;;;4864031;29;20529;-96
2023/04/02 03:36:37;;;;;;;3.83;1.27;;;4.20;1.00;;;;;;4865779;29;20195;-95
2023/04/02 03:39:12;;;;;;;2.20;1.30;;;4.20;99.90;;;;;;4879489;29;20242;-95
2023/04/02 03:41:43;;;;;;;1.93;1.20;;;4.20;99.90;;;;;;4881422;29;20230;-95
2023/04/02 03:44:21;;;;;;;1.43;0.97;;;4.20;99.90;;;;;;4880702;29;20202;-95
2023/04/02 03:46:56;;;;;;;1.97;1.10;;;4.20;99.90;;;;;;4880836;29;20660;-95
2023/04/02 03:49:31;;;;;;;3.77;1.50;;;4.20;99.90;;;;;;4881025;29;20556;-96
2023/04/02 03:52:04;;;;;;;5.13;1.60;;;4.20;99.90;;;;;;4862908;29;20203;-95
2023/04/02 03:54:32;;;;;;;4.00;1.43;;;4.20;99.90;;;;;;4879777;29;20206;-96
2023/04/02 03:57:00;;;;;;;3.10;1.50;;;4.20;1.00;;;;;;4893926;29;20222;-95
2023/04/02 03:59:35;;;;;;;2.50;1.73;;;4.20;1.00;;;;;;4896166;29;20195;-95
2023/04/02 04:02:12;;;;;;;2.57;1.50;;;4.20;1.00;;;;;;4884213;29;20210;-94
2023/04/02 04:04:42;;;;;;;2.80;1.60;;;4.20;1.00;;;;;;4883959;29;20202;-95
2023/04/02 04:07:20;;;;;;;3.27;1.37;;;4.20;1.00;;;;;;4883489;29;20254;-95
2023/04/02 04:09:50;;;;;;;3.80;1.73;;;4.20;1.00;;;;;;4883939;29;20258;-95
2023/04/02 04:12:26;;;;;;;4.90;1.50;;;4.20;1.00;;;;;;4883518;29;20210;-95
2023/04/02 04:14:59;;;;;;;4.33;1.70;;;4.20;1.00;;;;;;4883477;29;20210;-94
2023/04/02 04:17:33;;;;;;;3.87;1.73;;;4.20;1.00;;;;;;4885938;29;20226;-95
2023/04/02 04:20:08;;;;;;;4.47;1.83;;;4.20;1.00;;;;;;4903044;29;20270;-96
2023/04/02 04:22:35;;;;;;;5.70;2.03;;;4.20;1.00;;;;;;4902811;29;20182;-95
2023/04/02 04:25:04;;;;;;;3.43;1.80;;;4.20;1.00;;;;;;4887194;29;20198;-96
2023/04/02 04:27:37;;;;;;;4.50;1.97;;;4.20;1.00;;;;;;4883439;29;20211;-94
2023/04/02 04:30:13;;;;;;;3.30;1.47;;;4.20;1.00;;;;;;4883534;29;20208;-96
2023/04/02 04:32:49;;;;;;;3.17;1.33;;;4.20;1.00;;;;;;4885111;29;20349;-96
2023/04/02 04:35:22;;;;;;;4.67;1.97;;;4.20;1.00;;;;;;4892632;29;20213;-96
2023/04/02 04:37:57;;;;;;;2.23;1.07;;;4.20;99.90;;;;;;4902920;29;20233;-96
2023/04/02 04:40:27;;;;;;;5.33;1.60;;;4.30;99.90;;;;;;4883623;29;20206;-95
2023/04/02 04:42:57;;;;;;;4.17;1.30;;;4.20;99.90;;;;;;4883616;29;20195;-96
2023/04/02 04:45:37;;;;;;;3.23;1.67;;;4.20;99.90;;;;;;4889712;29;20226;-96
2023/04/02 04:48:10;;;;;;;2.90;1.50;;;4.20;99.90;;;;;;4898996;29;20651;-96
2023/04/02 04:50:46;;;;;;;5.97;1.60;;;4.20;99.90;;;;;;4892002;29;20258;-95
2023/04/02 04:53:17;;;;;;;5.33;1.47;;;4.20;48.30;;;;;;4884552;29;20191;-96
2023/04/02 04:55:44;;;;;;;4.20;1.13;;;4.20;99.90;;;;;;4883543;29;20222;-96
2023/04/02 04:58:19;;;;;;;2.30;1.10;;;4.20;99.90;;;;;;4882631;29;20257;-95
2023/04/02 05:00:55;;;;;;;3.73;1.50;;;4.20;90.10;;;;;;4882982;29;20190;-96
2023/04/02 05:03:30;;;;;;;4.90;1.60;;;4.20;31.80;;;;;;4865093;29;20187;-96
2023/04/02 05:06:05;;;;;;;3.73;1.60;;;4.20;22.20;;;;;;4872132;29;20190;-95
2023/04/02 05:08:35;;;;;;;2.03;1.00;;;4.30;1.00;;;;;;4882725;29;20577;-96
2023/04/02 05:11:06;;;;;;;3.83;1.47;;;4.30;1.00;;;;;;4881449;29;20226;-95
2023/04/02 05:13:39;;;;;;;1.97;1.17;;;4.30;1.00;;;;;;4887115;29;20671;-96
2023/04/02 05:16:15;;;;;;;33.00;14.40;;;4.30;1.00;;;;;;4900988;29;20663;-95
2023/04/02 05:18:45;;;;;;;2.63;1.27;;;4.30;27.70;;;;;;4901669;29;20223;-94
2023/04/02 05:21:21;;;;;;;1.43;1.03;;;4.40;57.20;;;;;;4891731;29;20674;-96
2023/04/02 05:23:54;;;;;;;4.70;1.20;;;4.30;1.00;;;;;;4884373;29;20233;-93
2023/04/02 05:26:25;;;;;;;1.93;1.00;;;4.40;1.00;;;;;;4882661;29;20209;-93
2023/04/02 05:28:57;;;;;;;2.17;0.80;;;4.30;1.00;;;;;;4882193;29;20217;-93
2023/04/02 05:31:27;;;;;;;4.07;1.17;;;4.30;1.00;;;;;;4882225;29;20207;-94
2023/04/02 05:33:55;;;;;;;2.07;1.00;;;4.20;1.00;;;;;;4882653;29;20283;-94
2023/04/02 05:36:26;;;;;;;3.00;1.30;;;4.10;1.00;;;;;;4863666;29;20211;-93
2023/04/02 05:38:55;;;;;;;1.50;1.00;;;4.10;1.00;;;;;;4888492;29;20233;-93
2023/04/02 05:41:26;;;;;;;5.27;1.50;;;4.20;1.00;;;;;;4898536;29;20213;-92
2023/04/02 05:44:01;;;;;;;2.73;1.00;;;4.20;1.00;;;;;;4895190;29;20207;-91
2023/04/02 05:46:34;;;;;;;4.10;1.17;;;4.20;1.00;;;;;;4881314;29;20590;-92
2023/04/02 05:49:05;;;;;;;1.70;1.20;;;4.30;1.00;;;;;;4881616;29;20217;-91
2023/04/02 05:51:41;;;;;;;2.07;0.93;;;4.30;1.00;;;;;;4881144;29;20556;-93
2023/04/02 05:54:22;;;;;;;3.17;1.00;;;4.30;1.00;;;;;;4897827;29;20663;-95
2023/04/02 05:56:55;;;;;;;3.33;1.00;;;4.40;1.00;;;;;;4894101;29;20256;-92
2023/04/02 05:59:25;;;;;;;5.13;1.47;;;4.40;1.00;;;;;;4881431;29;20264;-93
2023/04/02 06:01:59;;;;;;;6.97;1.47;;;4.40;1.00;;;;;;4881743;29;20186;-93
2023/04/02 06:04:31;;;;;;;2.27;0.97;;;4.40;1.00;;;;;;4881323;29;20211;-94
2023/04/02 06:07:05;;;;;;;6.53;1.27;;;4.40;1.00;;;;;;4881038;29;20203;-94
2023/04/02 06:09:42;;;;;;;3.90;1.27;;;4.40;1.00;;;;;;4863015;29;20190;-93
2023/04/02 06:12:18;;;;;;;4.37;1.30;;;4.40;1.00;;;;;;4862676;29;20207;-95
2023/04/02 06:14:45;;;;;;;3.73;1.20;;;4.40;1.00;;;;;;4884625;29;20194;-94
2023/04/02 06:17:15;;;;;;;5.33;1.27;;;4.40;1.00;;;;;;4882747;29;20202;-94
2023/04/02 06:19:42;;;;;;;4.27;1.23;;;4.40;1.00;;;;;;4880957;29;20265;-94
2023/04/02 06:22:20;;;;;;;4.40;1.30;;;4.50;1.00;;;;;;4881108;29;20217;-95
2023/04/02 06:24:51;;;;;;;2.20;1.27;;;4.50;1.00;;;;;;4899503;29;20635;-94
2023/04/02 06:27:21;;;;;;;4.83;1.50;;;4.60;1.00;;;;;;4882293;29;20941;-94
2023/04/02 06:29:51;;;;;;;2.43;0.93;;;4.60;99.90;;;;;;4880826;29;20206;-94
2023/04/02 06:32:22;;;;;;;3.90;1.00;;;4.60;99.90;;;;;;4880875;29;20238;-94
2023/04/02 06:34:49;;;;;;;2.53;1.13;;;4.60;99.90;;;;;;4881118;29;20203;-93
2023/04/02 06:37:24;;;;;;;5.50;1.30;;;4.60;1.00;;;;;;4880792;29;20205;-93
2023/04/02 06:39:51;;;;;;;2.53;1.10;;;4.60;99.90;;;;;;4881196;29;20655;-93
2023/04/02 06:42:21;;;;;;;2.03;1.23;;;4.50;99.90;;;;;;4881134;29;20218;-94
2023/04/02 06:44:49;;;;;;;1.47;0.97;;;4.50;99.90;;;;;;4887211;29;20206;-92
2023/04/02 06:47:24;;;;;;;2.17;1.20;;;4.60;99.90;;;;;;4881152;29;20203;-93
2023/04/02 06:49:56;;;;;;;5.67;1.20;;;4.50;99.90;;;;;;4880770;29;20258;-93
2023/04/02 06:52:29;;;;;;;1.50;0.90;;;4.50;99.90;;;;;;4880677;29;20560;-93
2023/04/02 06:54:56;;;;;;;2.60;1.10;;;4.60;99.90;;;;;;4862430;29;20265;-93
2023/04/02 06:57:22;;;;;;;3.57;1.00;;;4.50;99.90;;;;;;4880063;29;20203;-93
2023/04/02 06:59:49;;;;;;;3.87;1.17;;;4.50;99.90;;;;;;4880953;29;20222;-93
2023/04/02 07:02:28;;;;;;;6.67;1.40;;;4.40;99.90;;;;;;4880856;29;20205;-94
2023/04/02 07:05:01;;;;;;;1.83;1.23;;;4.40;99.90;;;;;;4880508;29;20203;-94
2023/04/02 07:07:29;;;;;;;2.77;1.20;;;4.40;99.90;;;;;;4880921;29;20274;-93
2023/04/02 07:09:56;;;;;;;2.70;1.00;;;4.40;99.90;;;;;;4880455;29;20198;-93
2023/04/02 07:12:24;;;;;;;3.10;1.43;;;4.40;99.90;;;;;;4881061;29;20253;-94
2023/04/02 07:14:51;;;;;;;2.97;1.30;;;4.40;99.90;;;;;;4895947;29;20198;-94
2023/04/02 07:17:19;;;;;;;2.27;1.20;;;4.40;99.90;;;;;;4899144;29;20210;-92
2023/04/02 07:19:48;;;;;;;3.13;1.20;;;4.40;99.90;;;;;;4890207;29;20219;-92
2023/04/02 07:22:15;;;;;;;3.63;0.97;;;4.40;99.90;;;;;;4881444;29;20210;-93
2023/04/02 07:24:44;;;;;;;3.53;1.07;;;4.40;99.90;;;;;;4898998;29;20212;-94
2023/04/02 07:27:12;;;;;;;7.60;1.50;;;4.40;99.90;;;;;;4899022;29;20234;-94
2023/04/02 07:29:41;;;;;;;1.67;0.80;;;4.40;99.90;;;;;;4886326;29;20237;-94
2023/04/02 07:32:08;;;;;;;4.33;1.40;;;4.50;99.90;;;;;;4883035;29;20199;-93
2023/04/02 07:34:35;;;;;;;1.50;1.10;;;4.50;99.90;;;;;;4880952;29;20206;-94
2023/04/02 07:37:02;;;;;;;2.77;1.10;;;4.50;28.30;;;;;;4884159;29;20203;-95
2023/04/02 07:39:29;;;;;;;2.70;0.87;;;4.50;99.90;;;;;;4883383;29;20703;-93
2023/04/02 07:41:59;;;;;;;2.47;1.00;;;4.50;99.90;;;;;;4884110;29;20644;-93
2023/04/02 07:44:26;;;;;;;3.03;1.10;;;4.60;99.90;;;;;;4880285;29;20743;-93
2023/04/02 07:46:54;;;;;;;3.23;1.30;;;4.60;99.90;;;;;;4865201;29;20210;-93
2023/04/02 07:49:21;;;;;;;2.77;1.40;;;4.70;99.90;;;;;;4883881;29;20209;-94
2023/04/02 07:51:48;;;;;;;2.57;1.20;;;4.80;99.90;;;;;;4883690;29;20202;-93
2023/04/02 07:54:15;;;;;;;2.20;1.40;;;4.80;99.90;;;;;;4883843;29;20201;-92
2023/04/02 07:56:42;;;;;;;2.97;1.10;;;4.90;99.90;;;;;;4883573;29;20210;-94
2023/04/02 07:59:10;;;;;;;1.90;0.97;;;5.00;81.20;;;;;;4883466;29;20226;-94
2023/04/02 08:01:37;;;;;;;1.43;0.90;;;5.00;8.40;;;;;;4883721;29;20213;-93
2023/04/02 08:04:06;;;;;;;2.50;1.17;;;5.00;1.00;;;;;;4883523;29;20288;-93
2023/04/02 08:06:33;;;;;;;2.60;1.10;;;5.00;1.00;;;;;;4882821;29;20195;-94
2023/04/02 08:09:00;;;;;;;2.97;1.20;;;5.00;1.00;;;;;;4889095;29;20251;-94
2023/04/02 08:11:27;;;;;;;4.07;1.37;;;5.00;26.60;;;;;;4884638;29;20261;-93
2023/04/02 08:13:54;;;;;;;8.83;1.00;;;5.10;1.00;;;;;;4897136;29;20211;-93
2023/04/02 08:16:24;;;;;;;1.13;0.90;;;5.10;1.00;;;;;;4884521;29;20764;-94
2023/04/02 08:18:51;;;;;;;3.53;1.13;;;5.20;1.00;;;;;;4887067;29;20223;-94
2023/04/02 08:21:17;;;;;;;2.13;1.00;;;5.20;1.00;;;;;;4884637;29;20199;-94
2023/04/02 08:23:45;;;;;;;1.43;0.97;;;5.30;1.00;;;;;;4895274;29;20218;-93
2023/04/02 08:26:17;;;;;;;1.90;1.33;;;5.30;1.00;;;;;;4897235;29;20196;-93
2023/04/02 08:28:44;;;;;;;2.33;1.23;;;5.40;1.00;;;;;;4885914;29;20261;-93
2023/04/02 08:31:12;;;;;;;4.33;1.30;;;5.40;1.00;;;;;;4877750;29;20203;-94
2023/04/02 08:33:40;;;;;;;1.97;0.83;;;5.50;1.00;;;;;;4882684;29;20210;-94
2023/04/02 08:36:07;;;;;;;2.00;0.80;;;5.50;1.00;;;;;;4883033;29;20234;-94
2023/04/02 08:38:34;;;;;;;2.37;0.80;;;5.60;1.00;;;;;;4882610;29;20274;-93
2023/04/02 08:41:04;;;;;;;2.90;1.10;;;5.70;1.00;;;;;;4883011;29;20211;-93
2023/04/02 08:43:43;;;;;;;2.40;0.80;;;5.80;1.00;;;;;;4882581;29;20570;-94
2023/04/02 08:46:17;;;;;;;3.03;0.97;;;5.90;1.00;;;;;;4882129;29;20193;-94
2023/04/02 08:48:54;;;;;;;1.57;1.20;;;6.10;1.00;;;;;;4882834;29;20207;-93
2023/04/02 08:51:24;;;;;;;2.70;1.10;;;6.30;1.00;;;;;;4890522;29;20189;-93
2023/04/02 08:53:55;;;;;;;1.57;1.00;;;6.30;1.00;;;;;;4890278;29;20647;-90
2023/04/02 08:56:28;;;;;;;4.63;1.00;;;6.20;1.00;;;;;;4882245;29;20208;-92
2023/04/02 08:58:58;;;;;;;4.13;1.40;;;6.30;1.00;;;;;;4868728;29;20686;-91
2023/04/02 09:01:35;;;;;;;2.37;1.00;;;6.60;1.00;;;;;;4883472;29;20223;-92
2023/04/02 09:04:13;;;;;;;2.83;1.13;;;7.00;1.00;;;;;;4884239;29;20201;-91
2023/04/02 09:06:42;;;;;;;1.97;0.90;;;7.20;1.00;;;;;;4881822;29;20202;-92
2023/04/02 09:09:11;;;;;;;1.73;1.00;;;7.50;1.00;;;;;;4882261;29;20195;-91
2023/04/02 09:11:46;;;;;;;2.07;1.23;;;7.50;99.90;;;;;;4882216;29;20199;-92
2023/04/02 09:14:17;;;;;;;2.70;0.90;;;7.50;99.90;;;;;;4883383;29;20206;-93
2023/04/02 09:16:48;;;;;;;2.33;1.30;;;7.40;99.90;;;;;;4881462;29;20201;-92
2023/04/02 09:19:19;;;;;;;1.70;1.00;;;7.30;99.90;;;;;;4881708;29;20300;-92
2023/04/02 09:21:55;;;;;;;1.63;0.90;;;7.40;99.90;;;;;;4880411;29;20555;-91
2023/04/02 09:24:22;;;;;;;1.20;1.10;;;7.30;99.90;;;;;;4881367;29;20204;-91
2023/04/02 09:26:49;;;;;;;4.47;2.60;;;7.30;99.90;;;;;;4889175;29;20214;-90
2023/04/02 09:29:36;;;;;;;2.77;1.10;;;7.30;99.90;;;;;;4883266;29;20194;-89
2023/04/02 09:32:13;;;;;;;1.83;1.00;;;7.30;99.90;;;;;;4886915;29;20205;-91
2023/04/02 09:34:41;;;;;;;4.30;1.17;;;7.30;99.90;;;;;;4882670;29;20571;-90
2023/04/02 09:37:09;;;;;;;1.30;1.03;;;7.40;99.90;;;;;;4880950;29;20203;-91
2023/04/02 09:39:36;;;;;;;2.43;1.20;;;7.60;99.90;;;;;;4881005;29;20237;-91
2023/04/02 09:42:07;;;;;;;1.07;0.80;;;7.80;99.90;;;;;;4880924;29;20209;-90
2023/04/02 09:44:35;;;;;;;1.07;0.67;;;8.00;99.90;;;;;;4881124;29;20196;-91
2023/04/02 09:47:03;;;;;;;0.70;0.70;;;8.10;99.90;;;;;;4883083;29;20234;-93
2023/04/02 09:49:32;;;;;;;2.47;0.90;;;8.20;99.90;;;;;;4883504;29;20191;-91
2023/04/02 09:52:28;;;;;;;3.13;1.00;;;8.30;99.90;;;;;;4900316;29;20206;-92
2023/04/02 09:55:21;;;;;;;1.10;0.70;;;8.30;99.90;;;;;;4847240;29;20300;-93
2023/04/02 09:57:50;;;;;;;3.57;1.10;;;8.30;99.90;;;;;;4873149;29;20207;-92
2023/04/02 10:00:21;;;;;;;1.17;0.70;;;8.30;99.90;;;;;;4881477;29;20211;-93
2023/04/02 10:03:02;;;;;;;1.30;0.87;;;8.30;99.90;;;;;;4881115;29;20219;-93
2023/04/02 10:05:31;;;;;;;2.53;0.90;;;8.30;99.90;;;;;;4882035;29;20636;-93
2023/04/02 10:08:17;;;;;;;2.90;0.97;;;8.30;99.90;;;;;;4883934;29;20194;-95
2023/04/02 10:10:48;;;;;;;1.30;1.00;;;8.60;99.90;;;;;;4869325;29;20652;-93
2023/04/02 10:13:20;;;;;;;2.20;1.30;;;8.60;99.90;;;;;;4881286;29;20184;-93
2023/04/02 10:15:53;;;;;;;2.37;1.10;;;8.50;99.90;;;;;;4876106;29;20216;-93
2023/04/02 10:18:29;;;;;;;1.30;0.80;;;8.30;99.90;;;;;;4880699;29;20299;-92
2023/04/02 10:20:59;;;;;;;2.37;1.17;;;8.10;99.90;;;;;;4881105;29;20238;-93
2023/04/02 10:23:30;;;;;;;1.87;1.00;;;8.00;99.90;;;;;;4880542;29;20200;-93
2023/04/02 10:26:09;;;;;;;1.63;0.93;;;8.10;99.90;;;;;;4877244;29;20203;-92
2023/04/02 10:28:50;;;;;;;1.40;0.90;;;8.40;99.90;;;;;;4872839;29;20214;-91
2023/04/02 10:31:24;;;;;;;7.10;1.00;;;8.80;99.90;;;;;;4880288;29;20268;-91
2023/04/02 10:33:53;;;;;;;2.70;1.10;;;8.90;99.90;;;;;;4880768;29;20288;-91
2023/04/02 10:36:34;;;;;;;3.17;1.13;;;8.90;99.90;;;;;;4885203;29;20225;-92
2023/04/02 10:39:07;;;;;;;2.00;1.00;;;8.90;99.90;;;;;;4872274;29;20233;-95
2023/04/02 10:41:43;;;;;;;2.63;1.07;;;9.00;99.90;;;;;;4868255;29;20211;-96
2023/04/02 10:44:22;;;;;;;1.63;1.00;;;9.00;99.90;;;;;;4872040;29;20207;-95
2023/04/02 10:47:02;;;;;;;0.93;0.70;;;9.00;1.00;;;;;;4881056;29;20205;-96
2023/04/02 10:49:38;;;;;;;1.40;0.90;;;9.10;1.00;;;;;;4880861;29;20196;-94
2023/04/02 10:52:12;;;;;;;1.03;0.77;;;9.10;99.90;;;;;;4862441;29;20188;-94
2023/04/02 10:54:48;;;;;;;3.27;0.90;;;9.10;1.00;;;;;;4862277;29;20212;-95
2023/04/02 10:57:28;;;;;;;0.83;0.60;;;9.30;1.00;;;;;;4880126;29;20207;-96
2023/04/02 11:00:04;;;;;;;1.43;0.90;;;9.50;1.00;;;;;;4881347;29;20210;-95
2023/04/02 11:02:40;;;;;;;2.70;1.30;;;9.60;99.90;;;;;;4880958;29;20289;-96
2023/04/02 11:05:16;;;;;;;2.37;1.07;;;9.60;99.90;;;;;;4881129;29;20206;-94
2023/04/02 11:07:53;;;;;;;1.93;0.90;;;9.50;99.90;;;;;;4880486;29;20231;-94
2023/04/02 11:10:22;;;;;;;1.27;0.83;;;9.40;99.90;;;;;;4884005;29;20287;-92
2023/04/02 11:12:56;;;;;;;0.97;0.70;;;9.40;99.90;;;;;;4884158;29;20301;-94
2023/04/02 11:15:23;;;;;;;0.90;0.80;;;9.30;99.90;;;;;;4883880;29;20245;-95
2023/04/02 11:17:50;;;;;;;4.13;0.93;;;9.20;99.90;;;;;;4884107;29;20212;-93
2023/04/02 11:20:43;;;;;;;1.77;0.90;;;9.00;99.90;;;;;;4883634;29;20761;-94
2023/04/02 11:23:12;;;;;;;1.40;1.00;;;8.90;99.90;;;;;;4883699;29;20216;-94
2023/04/02 11:25:41;;;;;;;1.00;0.80;;;9.00;99.90;;;;;;4883800;29;20207;-93
2023/04/02 11:28:24;;;;;;;1.20;0.80;;;9.10;99.90;;;;;;4884135;29;20208;-93
2023/04/02 11:30:51;;;;;;;1.57;0.80;;;9.00;99.90;;;;;;4883588;29;20634;-92
2023/04/02 11:33:39;;;;;;;1.37;0.80;;;9.10;99.90;;;;;;4883464;29;20204;-92
2023/04/02 11:36:47;;;;;;;3.40;1.07;;;9.20;99.90;;;;;;4883724;29;20208;-95
2023/04/02 11:39:52;;;;;;;4.10;1.00;;;9.20;99.90;;;;;;4883077;29;20261;-93
2023/04/02 11:42:25;;;;;;;3.50;1.37;;;9.40;99.90;;;;;;4884559;29;20214;-96
2023/04/02 11:44:52;;;;;;;2.43;1.20;;;9.60;99.90;;;;;;4886401;29;20205;-96
2023/04/02 11:47:21;;;;;;;1.60;0.93;;;9.90;99.90;;;;;;4889129;29;20202;-96
2023/04/02 11:50:03;;;;;;;2.80;1.17;;;10.00;99.90;;;;;;4889218;29;20198;-96
2023/04/02 11:52:49;;;;;;;2.87;0.93;;;10.10;99.90;;;;;;4897722;29;20211;-96
2023/04/02 11:55:26;;;;;;;5.27;2.73;;;10.10;99.90;;;;;;4890899;29;20199;-96
2023/04/02 11:58:21;;;;;;;1.67;1.10;;;10.20;99.90;;;;;;4897652;29;20202;-96
2023/04/02 12:01:17;;;;;;;4.37;1.70;;;10.30;99.90;;;;;;4888126;29;20226;-95
2023/04/02 12:04:01;;;;;;;1.27;0.90;;;10.30;99.90;;;;;;4875327;29;20200;-96
2023/04/02 12:06:38;;;;;;;1.30;0.77;;;10.20;99.90;;;;;;4875561;29;20274;-95
2023/04/02 12:09:19;;;;;;;1.30;0.93;;;9.90;99.90;;;;;;4883110;29;20652;-95
2023/04/02 12:11:47;;;;;;;2.50;0.90;;;9.70;99.90;;;;;;4875478;29;20213;-94
2023/04/02 12:14:33;;;;;;;2.17;0.80;;;9.80;99.90;;;;;;4878323;29;20271;-96
2023/04/02 12:17:01;;;;;;;2.90;1.00;;;10.20;99.90;;;;;;4872209;29;20285;-94
2023/04/02 12:19:30;;;;;;;3.40;1.50;;;10.60;99.90;;;;;;4881921;29;20205;-95
2023/04/02 12:21:58;;;;;;;2.87;1.77;;;10.80;99.90;;;;;;4874988;29;20204;-95
2023/04/02 12:24:30;;;;;;;1.40;0.60;;;10.80;99.90;;;;;;4880049;29;20212;-96
2023/04/02 12:27:14;;;;;;;1.97;0.77;;;10.70;99.90;;;;;;4888627;29;20279;-94
2023/04/02 12:29:42;;;;;;;1.37;0.80;;;10.50;99.90;;;;;;4884373;29;20277;-96
2023/04/02 12:32:21;;;;;;;1.50;0.80;;;10.30;99.90;;;;;;4881063;29;20200;-96
2023/04/02 12:34:48;;;;;;;1.77;0.60;;;10.00;99.90;;;;;;4891204;29;20680;-95
2023/04/02 12:37:22;;;;;;;1.97;0.80;;;9.80;99.90;;;;;;4884667;29;20205;-95
2023/04/02 12:39:57;;;;;;;1.10;0.60;;;9.70;99.90;;;;;;4888169;29;20214;-95
2023/04/02 12:42:32;;;;;;;0.90;0.80;;;9.60;99.90;;;;;;4869486;29;20284;-94
2023/04/02 12:45:01;;;;;;;0.90;0.60;;;9.70;99.90;;;;;;4872264;29;20694;-94
2023/04/02 12:47:28;;;;;;;1.77;0.97;;;10.00;99.90;;;;;;4888920;29;20208;-90
2023/04/02 12:49:58;;;;;;;1.43;0.70;;;10.30;99.90;;;;;;4881156;29;20214;-89
2023/04/02 12:52:27;;;;;;;0.87;0.60;;;10.60;99.90;;;;;;4879845;29;20203;-85
2023/04/02 12:54:57;;;;;;;1.97;1.07;;;10.70;99.90;;;;;;4878567;29;20197;-85
2023/04/02 12:57:35;;;;;;;6.03;3.07;;;10.70;99.90;;;;;;4879728;29;20209;-86
2023/04/02 13:00:24;;;;;;;5.27;3.37;;;10.60;99.90;;;;;;4879468;29;20227;-86
2023/04/02 13:02:58;;;;;;;4.97;3.40;;;10.40;99.90;;;;;;4880089;29;20198;-87
2023/04/02 13:05:38;;;;;;;3.33;2.13;;;10.40;99.90;;;;;;4880151;29;20200;-87
2023/04/02 13:08:05;;;;;;;1.33;1.10;;;10.50;99.90;;;;;;4878859;29;20292;-87
2023/04/02 13:10:33;;;;;;;4.10;1.33;;;10.90;99.90;;;;;;4871810;29;20673;-87
2023/04/02 13:13:01;;;;;;;1.80;0.70;;;11.00;99.90;;;;;;4880319;29;20204;-88
2023/04/02 13:15:31;;;;;;;1.67;0.87;;;10.80;99.90;;;;;;4877947;29;20313;-87
2023/04/02 13:18:17;;;;;;;1.57;0.80;;;10.60;99.90;;;;;;4879734;29;20201;-87
2023/04/02 13:20:56;;;;;;;1.37;0.70;;;10.20;99.90;;;;;;4879101;29;20215;-88
2023/04/02 13:23:33;;;;;;;2.23;0.70;;;10.30;99.90;;;;;;4876562;29;20663;-86
2023/04/02 13:26:02;;;;;;;1.27;0.87;;;10.60;99.90;;;;;;4880368;29;20199;-92
2023/04/02 13:28:29;;;;;;;0.30;0.30;;;10.70;99.90;;;;;;4880874;29;20207;-88